CheckWX is a tool to help pilots better visualize weather data.  It is not intended as a substitute for an official pre-flight weather briefing.

20:46:45 UTC

ESGG TAF
Gothenburg-Landvetter Airport
Gothenburg, Sweden
TAF AMD ESGG 182003Z 1820/1918 18012KT 5000 SCT007 BKN015 PROB40 1820/1823 0200 FG VV001 TEMPO 1823/1907 1000 RA BR BKN004 TEMPO 1907/1918 4000 SHRA BKN015CB

Feb-18@
20:00 UTC

Feb-18 @ 20:00 UTC

Feb-19@
18:00 UTC

Feb-19 @ 18:00 UTC

TAF AMD ESGG 182003Z 1820/1918 18012KT 5000 SCT007 BKN015
Wind
  • 180° at 12 KTS
Visibility
5,005 meters
Cloud Levels
  • Scattered at 700' AGL
  • Broken at 1,500' AGL

Feb-18@
20:00 UTC

Feb-18 @ 20:00 UTC

Feb-18@
23:00 UTC

Feb-18 @ 23:00 UTC

PROB40 1820/1823 0200 FG VV001

Probable - 40% Likelihood

Probable - 40% Likelihood during this time.

Visibility
193 meters
Conditions
Fog
Cloud Levels
  • Vertical visibility at 100' AGL

Feb-18@
23:00 UTC

Feb-18 @ 23:00 UTC

Feb-19@
07:00 UTC

Feb-19 @ 07:00 UTC

TEMPO 1823/1907 1000 RA BR BKN004

Temporary

TemporaryChanges expected for less than half the time period

Visibility
998 meters
Conditions
Rain, Mist
Cloud Levels
  • Broken at 400' AGL

Feb-19@
07:00 UTC

Feb-19 @ 07:00 UTC

Feb-19@
18:00 UTC

Feb-19 @ 18:00 UTC

TEMPO 1907/1918 4000 SHRA BKN015CB

Temporary

TemporaryChanges expected for less than half the time period

Visibility
4,007 meters
Conditions
Rain
Cloud Levels
  • Broken at 1,500' AGL